sensor_id;sensor_type;location;lat;lon;timestamp;temperature;humidity
5868;DHT22;2960;49.142;7.768;2023-04-15T00:01:22;7.10;55.10
5868;DHT22;2960;49.142;7.768;2023-04-15T00:03:52;7.10;54.70
5868;DHT22;2960;49.142;7.768;2023-04-15T00:06:22;7.00;54.70
5868;DHT22;2960;49.142;7.768;2023-04-15T00:08:50;6.90;54.80
5868;DHT22;2960;49.142;7.768;2023-04-15T00:11:18;6.90;54.90
5868;DHT22;2960;49.142;7.768;2023-04-15T00:13:45;6.90;54.90
5868;DHT22;2960;49.142;7.768;2023-04-15T00:16:13;6.90;54.90
5868;DHT22;2960;49.142;7.768;2023-04-15T00:18:40;6.80;54.80
5868;DHT22;2960;49.142;7.768;2023-04-15T00:21:08;6.90;54.90
5868;DHT22;2960;49.142;7.768;2023-04-15T00:23:36;6.90;54.90
5868;DHT22;2960;49.142;7.768;2023-04-15T00:26:03;6.80;54.80
5868;DHT22;2960;49.142;7.768;2023-04-15T00:28:30;6.80;54.90
5868;DHT22;2960;49.142;7.768;2023-04-15T00:30:57;6.80;54.90
5868;DHT22;2960;49.142;7.768;2023-04-15T00:33:24;6.80;55.00
5868;DHT22;2960;49.142;7.768;2023-04-15T00:35:51;6.70;54.90
5868;DHT22;2960;49.142;7.768;2023-04-15T00:38:20;6.60;54.90
5868;DHT22;2960;49.142;7.768;2023-04-15T00:40:47;6.60;55.10
5868;DHT22;2960;49.142;7.768;2023-04-15T00:43:14;6.50;55.10
5868;DHT22;2960;49.142;7.768;2023-04-15T00:45:42;6.50;55.20
5868;DHT22;2960;49.142;7.768;2023-04-15T00:48:09;6.40;55.30
5868;DHT22;2960;49.142;7.768;2023-04-15T00:50:37;6.30;55.40
5868;DHT22;2960;49.142;7.768;2023-04-15T00:53:04;6.30;55.60
5868;DHT22;2960;49.142;7.768;2023-04-15T00:55:32;6.20;56.10
5868;DHT22;2960;49.142;7.768;2023-04-15T00:58:00;6.20;55.60
5868;DHT22;2960;49.142;7.768;2023-04-15T01:00:28;6.10;55.60
5868;DHT22;2960;49.142;7.768;2023-04-15T01:02:55;6.10;55.60
5868;DHT22;2960;49.142;7.768;2023-04-15T01:05:22;6.10;55.60
5868;DHT22;2960;49.142;7.768;2023-04-15T01:07:54;6.20;55.60
5868;DHT22;2960;49.142;7.768;2023-04-15T01:10:21;6.20;55.50
5868;DHT22;2960;49.142;7.768;2023-04-15T01:12:49;6.20;55.40
5868;DHT22;2960;49.142;7.768;2023-04-15T01:15:17;6.20;55.40
5868;DHT22;2960;49.142;7.768;2023-04-15T01:17:45;6.10;55.30
5868;DHT22;2960;49.142;7.768;2023-04-15T01:20:12;6.10;55.30
5868;DHT22;2960;49.142;7.768;2023-04-15T01:22:40;6.10;55.40
5868;DHT22;2960;49.142;7.768;2023-04-15T01:25:10;6.00;55.40
5868;DHT22;2960;49.142;7.768;2023-04-15T01:27:40;6.00;55.50
5868;DHT22;2960;49.142;7.768;2023-04-15T01:30:08;5.90;55.60
5868;DHT22;2960;49.142;7.768;2023-04-15T01:32:36;5.90;55.70
5868;DHT22;2960;49.142;7.768;2023-04-15T01:35:04;5.80;55.70
5868;DHT22;2960;49.142;7.768;2023-04-15T01:37:32;5.80;55.80
5868;DHT22;2960;49.142;7.768;2023-04-15T01:39:59;5.80;55.80
5868;DHT22;2960;49.142;7.768;2023-04-15T01:42:26;5.70;55.80
5868;DHT22;2960;49.142;7.768;2023-04-15T01:44:55;5.80;55.80
5868;DHT22;2960;49.142;7.768;2023-04-15T01:47:24;5.80;55.80
5868;DHT22;2960;49.142;7.768;2023-04-15T01:49:52;5.80;55.70
5868;DHT22;2960;49.142;7.768;2023-04-15T01:52:19;5.80;55.70
5868;DHT22;2960;49.142;7.768;2023-04-15T01:54:46;5.80;55.70
5868;DHT22;2960;49.142;7.768;2023-04-15T01:57:13;5.80;55.60
5868;DHT22;2960;49.142;7.768;2023-04-15T01:59:41;5.70;56.10
5868;DHT22;2960;49.142;7.768;2023-04-15T02:02:09;5.80;55.60
5868;DHT22;2960;49.142;7.768;2023-04-15T02:04:37;5.70;55.60
5868;DHT22;2960;49.142;7.768;2023-04-15T02:07:04;5.70;55.60
5868;DHT22;2960;49.142;7.768;2023-04-15T02:09:31;5.70;55.70
5868;DHT22;2960;49.142;7.768;2023-04-15T02:11:58;5.50;55.60
5868;DHT22;2960;49.142;7.768;2023-04-15T02:14:26;5.50;55.90
5868;DHT22;2960;49.142;7.768;2023-04-15T02:16:53;5.40;55.90
5868;DHT22;2960;49.142;7.768;2023-04-15T02:19:21;5.40;56.10
5868;DHT22;2960;49.142;7.768;2023-04-15T02:21:49;5.30;56.00
5868;DHT22;2960;49.142;7.768;2023-04-15T02:24:16;5.40;56.00
5868;DHT22;2960;49.142;7.768;2023-04-15T02:26:43;5.40;55.90
5868;DHT22;2960;49.142;7.768;2023-04-15T02:29:11;5.40;55.90
5868;DHT22;2960;49.142;7.768;2023-04-15T02:31:38;5.40;55.80
5868;DHT22;2960;49.142;7.768;2023-04-15T02:34:06;5.30;55.80
5868;DHT22;2960;49.142;7.768;2023-04-15T02:36:35;5.30;55.90
5868;DHT22;2960;49.142;7.768;2023-04-15T02:39:02;5.30;55.90
5868;DHT22;2960;49.142;7.768;2023-04-15T02:41:29;5.30;56.50
5868;DHT22;2960;49.142;7.768;2023-04-15T02:43:56;5.30;55.90
5868;DHT22;2960;49.142;7.768;2023-04-15T02:46:23;5.20;55.90
5868;DHT22;2960;49.142;7.768;2023-04-15T02:48:52;5.20;55.90
5868;DHT22;2960;49.142;7.768;2023-04-15T02:51:20;5.20;55.90
5868;DHT22;2960;49.142;7.768;2023-04-15T02:53:49;5.20;56.00
5868;DHT22;2960;49.142;7.768;2023-04-15T02:56:16;5.20;56.00
5868;DHT22;2960;49.142;7.768;2023-04-15T02:58:44;5.10;56.00
5868;DHT22;2960;49.142;7.768;2023-04-15T03:01:11;5.10;56.10
5868;DHT22;2960;49.142;7.768;2023-04-15T03:03:39;5.00;56.10
5868;DHT22;2960;49.142;7.768;2023-04-15T03:06:06;5.00;56.20
5868;DHT22;2960;49.142;7.768;2023-04-15T03:08:33;5.00;56.20
5868;DHT22;2960;49.142;7.768;2023-04-15T03:11:02;4.90;56.20
5868;DHT22;2960;49.142;7.768;2023-04-15T03:13:33;4.90;56.30
5868;DHT22;2960;49.142;7.768;2023-04-15T03:16:00;4.90;56.30
5868;DHT22;2960;49.142;7.768;2023-04-15T03:18:27;4.80;56.30
5868;DHT22;2960;49.142;7.768;2023-04-15T03:20:54;4.80;56.40
5868;DHT22;2960;49.142;7.768;2023-04-15T03:23:21;4.70;56.50
5868;DHT22;2960;49.142;7.768;2023-04-15T03:25:48;4.70;56.50
5868;DHT22;2960;49.142;7.768;2023-04-15T03:28:17;4.70;56.60
5868;DHT22;2960;49.142;7.768;2023-04-15T03:30:44;4.70;56.50
5868;DHT22;2960;49.142;7.768;2023-04-15T03:33:11;4.70;56.60
5868;DHT22;2960;49.142;7.768;2023-04-15T03:35:38;4.70;56.60
5868;DHT22;2960;49.142;7.768;2023-04-15T03:38:05;4.60;56.60
5868;DHT22;2960;49.142;7.768;2023-04-15T03:40:33;4.60;56.60
5868;DHT22;2960;49.142;7.768;2023-04-15T03:43:00;4.50;57.10
5868;DHT22;2960;49.142;7.768;2023-04-15T03:45:28;4.50;56.70
5868;DHT22;2960;49.142;7.768;2023-04-15T03:47:56;4.50;56.70
5868;DHT22;2960;49.142;7.768;2023-04-15T03:50:23;4.50;56.80
5868;DHT22;2960;49.142;7.768;2023-04-15T03:52:50;4.50;57.40
5868;DHT22;2960;49.142;7.768;2023-04-15T03:55:17;4.50;56.70
5868;DHT22;2960;49.142;7.768;2023-04-15T03:57:45;4.50;56.60
5868;DHT22;2960;49.142;7.768;2023-04-15T04:00:12;4.50;56.60
5868;DHT22;2960;49.142;7.768;2023-04-15T04:02:41;4.60;56.60
5868;DHT22;2960;49.142;7.768;2023-04-15T04:05:08;4.60;56.60
5868;DHT22;2960;49.142;7.768;2023-04-15T04:07:35;4.50;56.50
5868;DHT22;2960;49.142;7.768;2023-04-15T04:10:03;4.50;56.60
5868;DHT22;2960;49.142;7.768;2023-04-15T04:12:30;4.50;56.70
5868;DHT22;2960;49.142;7.768;2023-04-15T04:14:58;4.50;56.70
5868;DHT22;2960;49.142;7.768;2023-04-15T04:17:25;4.40;56.70
5868;DHT22;2960;49.142;7.768;2023-04-15T04:19:53;4.40;56.80
5868;DHT22;2960;49.142;7.768;2023-04-15T04:22:21;4.30;56.80
5868;DHT22;2960;49.142;7.768;2023-04-15T04:24:49;4.30;56.90
5868;DHT22;2960;49.142;7.768;2023-04-15T04:27:16;4.40;57.00
5868;DHT22;2960;49.142;7.768;2023-04-15T04:29:43;4.30;57.00
5868;DHT22;2960;49.142;7.768;2023-04-15T04:32:12;4.30;57.60
5868;DHT22;2960;49.142;7.768;2023-04-15T04:34:39;4.20;57.00
5868;DHT22;2960;49.142;7.768;2023-04-15T04:37:07;4.20;57.10
5868;DHT22;2960;49.142;7.768;2023-04-15T04:39:37;4.20;57.10
5868;DHT22;2960;49.142;7.768;2023-04-15T04:42:04;4.20;57.10
5868;DHT22;2960;49.142;7.768;2023-04-15T04:44:32;4.20;57.00
5868;DHT22;2960;49.142;7.768;2023-04-15T04:46:59;4.20;57.00
5868;DHT22;2960;49.142;7.768;2023-04-15T04:49:26;4.20;57.60
5868;DHT22;2960;49.142;7.768;2023-04-15T04:51:53;4.20;57.10
5868;DHT22;2960;49.142;7.768;2023-04-15T04:54:24;4.20;57.10
5868;DHT22;2960;49.142;7.768;2023-04-15T04:56:52;4.10;57.10
5868;DHT22;2960;49.142;7.768;2023-04-15T04:59:19;4.10;57.20
5868;DHT22;2960;49.142;7.768;2023-04-15T05:01:47;4.10;57.20
5868;DHT22;2960;49.142;7.768;2023-04-15T05:04:14;4.00;57.20
5868;DHT22;2960;49.142;7.768;2023-04-15T05:06:41;4.00;57.30
5868;DHT22;2960;49.142;7.768;2023-04-15T05:09:08;4.00;57.30
5868;DHT22;2960;49.142;7.768;2023-04-15T05:11:36;4.00;57.30
5868;DHT22;2960;49.142;7.768;2023-04-15T05:14:03;4.00;57.70
5868;DHT22;2960;49.142;7.768;2023-04-15T05:16:31;4.00;57.30
5868;DHT22;2960;49.142;7.768;2023-04-15T05:18:58;4.10;57.30
5868;DHT22;2960;49.142;7.768;2023-04-15T05:21:25;4.20;57.40
5868;DHT22;2960;49.142;7.768;2023-04-15T05:23:52;4.20;57.30
5868;DHT22;2960;49.142;7.768;2023-04-15T05:26:19;4.30;57.30
5868;DHT22;2960;49.142;7.768;2023-04-15T05:28:48;4.30;57.80
5868;DHT22;2960;49.142;7.768;2023-04-15T05:31:15;4.40;57.30
5868;DHT22;2960;49.142;7.768;2023-04-15T05:33:42;4.50;57.30
5868;DHT22;2960;49.142;7.768;2023-04-15T05:36:10;4.60;57.30
5868;DHT22;2960;49.142;7.768;2023-04-15T05:38:37;4.60;57.20
5868;DHT22;2960;49.142;7.768;2023-04-15T05:41:04;4.70;57.20
5868;DHT22;2960;49.142;7.768;2023-04-15T05:43:31;4.80;57.30
5868;DHT22;2960;49.142;7.768;2023-04-15T05:46:00;4.80;57.20
5868;DHT22;2960;49.142;7.768;2023-04-15T05:48:27;4.90;57.20
5868;DHT22;2960;49.142;7.768;2023-04-15T05:50:54;5.00;57.20
5868;DHT22;2960;49.142;7.768;2023-04-15T05:53:21;5.10;57.20
5868;DHT22;2960;49.142;7.768;2023-04-15T05:55:48;5.10;57.20
5868;DHT22;2960;49.142;7.768;2023-04-15T05:58:15;5.10;57.20
5868;DHT22;2960;49.142;7.768;2023-04-15T06:00:42;5.20;57.40
5868;DHT22;2960;49.142;7.768;2023-04-15T06:03:12;5.20;58.10
5868;DHT22;2960;49.142;7.768;2023-04-15T06:05:39;5.30;57.60
5868;DHT22;2960;49.142;7.768;2023-04-15T06:08:09;5.40;57.60
5868;DHT22;2960;49.142;7.768;2023-04-15T06:10:37;5.50;57.50
5868;DHT22;2960;49.142;7.768;2023-04-15T06:13:04;5.60;57.40
5868;DHT22;2960;49.142;7.768;2023-04-15T06:15:31;5.60;57.50
5868;DHT22;2960;49.142;7.768;2023-04-15T06:17:58;5.70;57.70
5868;DHT22;2960;49.142;7.768;2023-04-15T06:20:27;5.70;58.30
5868;DHT22;2960;49.142;7.768;2023-04-15T06:22:54;5.70;58.40
5868;DHT22;2960;49.142;7.768;2023-04-15T06:25:21;5.80;57.90
5868;DHT22;2960;49.142;7.768;2023-04-15T06:27:49;5.90;57.90
5868;DHT22;2960;49.142;7.768;2023-04-15T06:30:16;5.90;57.90
5868;DHT22;2960;49.142;7.768;2023-04-15T06:32:43;6.10;58.10
5868;DHT22;2960;49.142;7.768;2023-04-15T06:35:10;6.20;58.10
5868;DHT22;2960;49.142;7.768;2023-04-15T06:37:39;6.30;58.00
5868;DHT22;2960;49.142;7.768;2023-04-15T06:40:07;6.60;58.10
5868;DHT22;2960;49.142;7.768;2023-04-15T06:42:35;6.60;58.00
5868;DHT22;2960;49.142;7.768;2023-04-15T06:45:03;6.80;58.20
5868;DHT22;2960;49.142;7.768;2023-04-15T06:47:31;6.90;57.90
5868;DHT22;2960;49.142;7.768;2023-04-15T06:49:58;7.10;58.00
5868;DHT22;2960;49.142;7.768;2023-04-15T06:52:25;7.20;57.90
5868;DHT22;2960;49.142;7.768;2023-04-15T06:54:53;7.40;57.90
5868;DHT22;2960;49.142;7.768;2023-04-15T06:57:21;7.50;57.90
5868;DHT22;2960;49.142;7.768;2023-04-15T06:59:50;7.60;57.80
5868;DHT22;2960;49.142;7.768;2023-04-15T07:02:19;7.70;57.70
5868;DHT22;2960;49.142;7.768;2023-04-15T07:04:46;7.90;57.80
5868;DHT22;2960;49.142;7.768;2023-04-15T07:07:13;7.90;58.20
5868;DHT22;2960;49.142;7.768;2023-04-15T07:09:42;8.00;57.70
5868;DHT22;2960;49.142;7.768;2023-04-15T07:12:10;8.10;57.70
5868;DHT22;2960;49.142;7.768;2023-04-15T07:14:37;8.20;57.60
5868;DHT22;2960;49.142;7.768;2023-04-15T07:17:04;8.20;57.50
5868;DHT22;2960;49.142;7.768;2023-04-15T07:19:32;8.30;57.50
5868;DHT22;2960;49.142;7.768;2023-04-15T07:21:59;8.40;57.50
5868;DHT22;2960;49.142;7.768;2023-04-15T07:24:26;8.50;57.50
5868;DHT22;2960;49.142;7.768;2023-04-15T07:26:53;8.60;57.40
5868;DHT22;2960;49.142;7.768;2023-04-15T07:29:23;8.70;58.00
5868;DHT22;2960;49.142;7.768;2023-04-15T07:31:50;8.80;57.40
5868;DHT22;2960;49.142;7.768;2023-04-15T07:34:18;8.80;57.40
5868;DHT22;2960;49.142;7.768;2023-04-15T07:36:46;8.90;57.40
5868;DHT22;2960;49.142;7.768;2023-04-15T07:39:15;9.00;57.40
5868;DHT22;2960;49.142;7.768;2023-04-15T07:41:42;9.10;57.40
5868;DHT22;2960;49.142;7.768;2023-04-15T07:44:09;9.20;57.40
5868;DHT22;2960;49.142;7.768;2023-04-15T07:46:38;9.30;57.50
5868;DHT22;2960;49.142;7.768;2023-04-15T07:49:05;9.40;57.60
5868;DHT22;2960;49.142;7.768;2023-04-15T07:51:33;9.50;57.50
5868;DHT22;2960;49.142;7.768;2023-04-15T07:54:00;9.50;57.40
5868;DHT22;2960;49.142;7.768;2023-04-15T07:56:27;9.60;57.40
5868;DHT22;2960;49.142;7.768;2023-04-15T07:58:54;9.70;57.40
5868;DHT22;2960;49.142;7.768;2023-04-15T08:01:21;9.80;57.40
5868;DHT22;2960;49.142;7.768;2023-04-15T08:03:50;9.90;57.50
5868;DHT22;2960;49.142;7.768;2023-04-15T08:06:17;10.00;57.10
5868;DHT22;2960;49.142;7.768;2023-04-15T08:08:44;10.10;56.50
5868;DHT22;2960;49.142;7.768;2023-04-15T08:11:12;10.20;56.50
5868;DHT22;2960;49.142;7.768;2023-04-15T08:13:39;10.40;56.50
5868;DHT22;2960;49.142;7.768;2023-04-15T08:16:19;10.50;56.40
5868;DHT22;2960;49.142;7.768;2023-04-15T08:18:50;10.60;56.30
5868;DHT22;2960;49.142;7.768;2023-04-15T08:21:18;10.70;56.20
5868;DHT22;2960;49.142;7.768;2023-04-15T08:23:47;10.90;56.30
5868;DHT22;2960;49.142;7.768;2023-04-15T08:26:15;11.10;56.30
5868;DHT22;2960;49.142;7.768;2023-04-15T08:28:44;11.20;56.20
5868;DHT22;2960;49.142;7.768;2023-04-15T08:31:13;11.40;56.20
5868;DHT22;2960;49.142;7.768;2023-04-15T08:33:40;11.60;56.10
5868;DHT22;2960;49.142;7.768;2023-04-15T08:36:09;11.80;56.60
5868;DHT22;2960;49.142;7.768;2023-04-15T08:38:36;11.90;56.40
5868;DHT22;2960;49.142;7.768;2023-04-15T08:41:08;12.10;55.80
5868;DHT22;2960;49.142;7.768;2023-04-15T08:43:43;12.20;55.70
5868;DHT22;2960;49.142;7.768;2023-04-15T08:46:14;12.40;55.60
5868;DHT22;2960;49.142;7.768;2023-04-15T08:48:42;12.50;55.40
5868;DHT22;2960;49.142;7.768;2023-04-15T08:51:11;12.70;55.30
5868;DHT22;2960;49.142;7.768;2023-04-15T08:53:41;12.80;55.20
5868;DHT22;2960;49.142;7.768;2023-04-15T08:56:10;12.90;55.00
5868;DHT22;2960;49.142;7.768;2023-04-15T08:58:40;13.10;55.00
5868;DHT22;2960;49.142;7.768;2023-04-15T09:01:07;13.20;54.70
5868;DHT22;2960;49.142;7.768;2023-04-15T09:03:34;13.30;55.20
5868;DHT22;2960;49.142;7.768;2023-04-15T09:06:03;13.40;54.50
5868;DHT22;2960;49.142;7.768;2023-04-15T09:08:32;13.50;54.50
5868;DHT22;2960;49.142;7.768;2023-04-15T09:11:00;13.60;54.40
5868;DHT22;2960;49.142;7.768;2023-04-15T09:13:28;13.70;54.30
5868;DHT22;2960;49.142;7.768;2023-04-15T09:15:55;13.80;54.10
5868;DHT22;2960;49.142;7.768;2023-04-15T09:18:27;13.90;54.10
5868;DHT22;2960;49.142;7.768;2023-04-15T09:20:55;14.00;54.00
5868;DHT22;2960;49.142;7.768;2023-04-15T09:23:23;14.20;53.90
5868;DHT22;2960;49.142;7.768;2023-04-15T09:25:51;14.30;53.70
5868;DHT22;2960;49.142;7.768;2023-04-15T09:28:23;14.40;53.50
5868;DHT22;2960;49.142;7.768;2023-04-15T09:30:54;14.60;53.20
5868;DHT22;2960;49.142;7.768;2023-04-15T09:33:23;14.70;53.00
5868;DHT22;2960;49.142;7.768;2023-04-15T09:35:58;14.80;52.90
5868;DHT22;2960;49.142;7.768;2023-04-15T09:38:26;15.00;52.80
5868;DHT22;2960;49.142;7.768;2023-04-15T09:40:55;15.10;52.60
5868;DHT22;2960;49.142;7.768;2023-04-15T09:43:25;15.20;52.20
5868;DHT22;2960;49.142;7.768;2023-04-15T09:46:03;15.40;52.00
5868;DHT22;2960;49.142;7.768;2023-04-15T09:48:30;15.50;51.80
5868;DHT22;2960;49.142;7.768;2023-04-15T09:50:58;15.70;51.70
5868;DHT22;2960;49.142;7.768;2023-04-15T09:53:26;15.80;51.40
5868;DHT22;2960;49.142;7.768;2023-04-15T09:55:57;15.90;51.10
5868;DHT22;2960;49.142;7.768;2023-04-15T09:58:27;16.00;50.90
5868;DHT22;2960;49.142;7.768;2023-04-15T10:00:56;16.10;50.40
5868;DHT22;2960;49.142;7.768;2023-04-15T10:03:26;16.10;50.00
5868;DHT22;2960;49.142;7.768;2023-04-15T10:05:55;16.20;49.80
5868;DHT22;2960;49.142;7.768;2023-04-15T10:08:23;16.30;49.40
5868;DHT22;2960;49.142;7.768;2023-04-15T10:10:53;16.30;48.80
5868;DHT22;2960;49.142;7.768;2023-04-15T10:13:23;16.20;48.70
5868;DHT22;2960;49.142;7.768;2023-04-15T10:15:57;16.30;48.80
5868;DHT22;2960;49.142;7.768;2023-04-15T10:18:27;16.30;48.70
5868;DHT22;2960;49.142;7.768;2023-04-15T10:20:55;16.30;48.40
5868;DHT22;2960;49.142;7.768;2023-04-15T10:23:22;16.30;48.30
5868;DHT22;2960;49.142;7.768;2023-04-15T10:25:51;16.30;48.20
5868;DHT22;2960;49.142;7.768;2023-04-15T10:28:21;16.30;48.00
5868;DHT22;2960;49.142;7.768;2023-04-15T10:30:48;16.30;47.80
5868;DHT22;2960;49.142;7.768;2023-04-15T10:33:17;16.30;47.60
5868;DHT22;2960;49.142;7.768;2023-04-15T10:35:47;16.30;47.50
5868;DHT22;2960;49.142;7.768;2023-04-15T10:38:33;16.30;47.60
5868;DHT22;2960;49.142;7.768;2023-04-15T10:41:15;16.30;47.60
5868;DHT22;2960;49.142;7.768;2023-04-15T10:43:49;16.30;47.50
5868;DHT22;2960;49.142;7.768;2023-04-15T10:46:20;16.20;46.90
5868;DHT22;2960;49.142;7.768;2023-04-15T10:48:49;16.20;46.50
5868;DHT22;2960;49.142;7.768;2023-04-15T10:51:28;16.20;46.30
5868;DHT22;2960;49.142;7.768;2023-04-15T10:53:56;16.10;46.20
5868;DHT22;2960;49.142;7.768;2023-04-15T10:56:27;16.10;46.20
5868;DHT22;2960;49.142;7.768;2023-04-15T10:58:58;16.00;46.10
5868;DHT22;2960;49.142;7.768;2023-04-15T11:01:50;16.00;45.90
5868;DHT22;2960;49.142;7.768;2023-04-15T11:04:50;16.00;45.80
5868;DHT22;2960;49.142;7.768;2023-04-15T11:07:33;16.00;45.70
5868;DHT22;2960;49.142;7.768;2023-04-15T11:13:21;16.00;45.50
5868;DHT22;2960;49.142;7.768;2023-04-15T11:15:58;16.00;45.30
5868;DHT22;2960;49.142;7.768;2023-04-15T11:18:29;16.00;45.30
5868;DHT22;2960;49.142;7.768;2023-04-15T11:21:00;16.00;45.10
5868;DHT22;2960;49.142;7.768;2023-04-15T11:23:34;16.10;45.20
5868;DHT22;2960;49.142;7.768;2023-04-15T11:26:04;16.10;45.10
5868;DHT22;2960;49.142;7.768;2023-04-15T11:28:34;16.10;45.10
5868;DHT22;2960;49.142;7.768;2023-04-15T11:31:10;16.10;45.00
5868;DHT22;2960;49.142;7.768;2023-04-15T11:33:45;16.20;45.30
5868;DHT22;2960;49.142;7.768;2023-04-15T11:36:13;16.10;44.60
5868;DHT22;2960;49.142;7.768;2023-04-15T11:38:44;16.10;44.60
5868;DHT22;2960;49.142;7.768;2023-04-15T11:41:12;16.10;44.40
5868;DHT22;2960;49.142;7.768;2023-04-15T11:43:40;16.10;44.40
5868;DHT22;2960;49.142;7.768;2023-04-15T11:46:08;16.10;44.40
5868;DHT22;2960;49.142;7.768;2023-04-15T11:48:40;16.10;44.20
5868;DHT22;2960;49.142;7.768;2023-04-15T11:51:09;16.20;44.10
5868;DHT22;2960;49.142;7.768;2023-04-15T11:53:38;16.20;43.70
5868;DHT22;2960;49.142;7.768;2023-04-15T11:56:07;16.20;43.70
5868;DHT22;2960;49.142;7.768;2023-04-15T11:58:36;16.20;43.80
5868;DHT22;2960;49.142;7.768;2023-04-15T12:01:04;16.20;43.80
5868;DHT22;2960;49.142;7.768;2023-04-15T12:03:37;16.20;43.60
5868;DHT22;2960;49.142;7.768;2023-04-15T12:06:11;16.20;43.30
5868;DHT22;2960;49.142;7.768;2023-04-15T12:08:58;16.20;43.70
5868;DHT22;2960;49.142;7.768;2023-04-15T12:11:40;16.20;42.90
5868;DHT22;2960;49.142;7.768;2023-04-15T12:14:11;16.20;42.60
5868;DHT22;2960;49.142;7.768;2023-04-15T12:16:44;16.20;42.40
5868;DHT22;2960;49.142;7.768;2023-04-15T12:19:16;16.20;42.30
5868;DHT22;2960;49.142;7.768;2023-04-15T12:21:47;16.20;42.30
5868;DHT22;2960;49.142;7.768;2023-04-15T12:24:19;16.20;42.40
5868;DHT22;2960;49.142;7.768;2023-04-15T12:26:49;16.20;42.20
5868;DHT22;2960;49.142;7.768;2023-04-15T12:29:18;16.20;42.30
5868;DHT22;2960;49.142;7.768;2023-04-15T12:31:49;16.20;42.40
5868;DHT22;2960;49.142;7.768;2023-04-15T12:34:26;16.20;43.10
5868;DHT22;2960;49.142;7.768;2023-04-15T12:36:55;16.30;42.50
5868;DHT22;2960;49.142;7.768;2023-04-15T12:39:24;16.40;42.40
5868;DHT22;2960;49.142;7.768;2023-04-15T12:41:53;16.40;42.20
5868;DHT22;2960;49.142;7.768;2023-04-15T12:44:22;16.50;42.00
5868;DHT22;2960;49.142;7.768;2023-04-15T12:46:50;16.60;41.60
5868;DHT22;2960;49.142;7.768;2023-04-15T12:49:19;16.60;42.20
5868;DHT22;2960;49.142;7.768;2023-04-15T12:51:48;16.60;41.30
5868;DHT22;2960;49.142;7.768;2023-04-15T12:54:16;16.60;41.40
5868;DHT22;2960;49.142;7.768;2023-04-15T12:56:43;16.60;41.50
5868;DHT22;2960;49.142;7.768;2023-04-15T12:59:12;16.60;41.40
5868;DHT22;2960;49.142;7.768;2023-04-15T13:01:39;16.60;41.30
5868;DHT22;2960;49.142;7.768;2023-04-15T13:04:06;16.60;41.90
5868;DHT22;2960;49.142;7.768;2023-04-15T13:06:35;16.60;41.30
5868;DHT22;2960;49.142;7.768;2023-04-15T13:09:03;16.50;41.30
5868;DHT22;2960;49.142;7.768;2023-04-15T13:11:31;16.50;41.50
5868;DHT22;2960;49.142;7.768;2023-04-15T13:14:00;16.50;41.60
5868;DHT22;2960;49.142;7.768;2023-04-15T13:16:28;16.50;41.70
5868;DHT22;2960;49.142;7.768;2023-04-15T13:18:55;16.50;41.50
5868;DHT22;2960;49.142;7.768;2023-04-15T13:21:22;16.50;41.10
5868;DHT22;2960;49.142;7.768;2023-04-15T13:23:50;16.50;41.10
5868;DHT22;2960;49.142;7.768;2023-04-15T13:26:18;16.50;40.70
5868;DHT22;2960;49.142;7.768;2023-04-15T13:28:45;16.50;39.70
5868;DHT22;2960;49.142;7.768;2023-04-15T13:31:13;16.50;39.60
5868;DHT22;2960;49.142;7.768;2023-04-15T13:33:42;16.40;39.20
5868;DHT22;2960;49.142;7.768;2023-04-15T13:36:10;16.40;39.00
5868;DHT22;2960;49.142;7.768;2023-04-15T13:38:37;16.40;38.60
5868;DHT22;2960;49.142;7.768;2023-04-15T13:41:05;16.50;38.50
5868;DHT22;2960;49.142;7.768;2023-04-15T13:43:33;16.50;38.90
5868;DHT22;2960;49.142;7.768;2023-04-15T13:46:00;16.50;38.20
5868;DHT22;2960;49.142;7.768;2023-04-15T13:48:27;16.60;37.60
5868;DHT22;2960;49.142;7.768;2023-04-15T13:50:54;16.60;37.30
5868;DHT22;2960;49.142;7.768;2023-04-15T13:53:21;16.70;37.30
5868;DHT22;2960;49.142;7.768;2023-04-15T13:55:49;16.70;37.40
5868;DHT22;2960;49.142;7.768;2023-04-15T13:58:17;16.80;37.30
5868;DHT22;2960;49.142;7.768;2023-04-15T14:00:44;16.80;37.30
5868;DHT22;2960;49.142;7.768;2023-04-15T14:03:12;16.80;37.10
5868;DHT22;2960;49.142;7.768;2023-04-15T14:05:39;16.80;37.00
5868;DHT22;2960;49.142;7.768;2023-04-15T14:08:06;16.80;36.70
5868;DHT22;2960;49.142;7.768;2023-04-15T14:10:34;16.80;37.10
5868;DHT22;2960;49.142;7.768;2023-04-15T14:13:01;16.80;37.30
5868;DHT22;2960;49.142;7.768;2023-04-15T14:15:32;16.80;37.40
5868;DHT22;2960;49.142;7.768;2023-04-15T14:17:59;16.70;37.50
5868;DHT22;2960;49.142;7.768;2023-04-15T14:20:27;16.80;37.70
5868;DHT22;2960;49.142;7.768;2023-04-15T14:22:54;16.70;38.30
5868;DHT22;2960;49.142;7.768;2023-04-15T14:25:21;16.70;37.80
5868;DHT22;2960;49.142;7.768;2023-04-15T14:27:48;16.70;37.80
5868;DHT22;2960;49.142;7.768;2023-04-15T14:30:16;16.60;37.80
5868;DHT22;2960;49.142;7.768;2023-04-15T14:32:44;16.60;38.10
5868;DHT22;2960;49.142;7.768;2023-04-15T14:35:12;16.60;38.20
5868;DHT22;2960;49.142;7.768;2023-04-15T14:37:39;16.50;38.10
5868;DHT22;2960;49.142;7.768;2023-04-15T14:40:07;16.50;38.20
5868;DHT22;2960;49.142;7.768;2023-04-15T14:42:35;16.50;38.30
5868;DHT22;2960;49.142;7.768;2023-04-15T14:45:03;16.40;38.90
5868;DHT22;2960;49.142;7.768;2023-04-15T14:47:31;16.40;38.20
5868;DHT22;2960;49.142;7.768;2023-04-15T14:49:59;16.30;37.90
5868;DHT22;2960;49.142;7.768;2023-04-15T14:52:26;16.20;38.10
5868;DHT22;2960;49.142;7.768;2023-04-15T14:54:54;16.20;38.20
5868;DHT22;2960;49.142;7.768;2023-04-15T14:57:21;16.10;38.20
5868;DHT22;2960;49.142;7.768;2023-04-15T14:59:49;16.10;38.30
5868;DHT22;2960;49.142;7.768;2023-04-15T15:02:21;16.10;38.30
5868;DHT22;2960;49.142;7.768;2023-04-15T15:04:48;16.10;38.30
5868;DHT22;2960;49.142;7.768;2023-04-15T15:07:17;16.00;38.30
5868;DHT22;2960;49.142;7.768;2023-04-15T15:09:44;16.00;38.10
5868;DHT22;2960;49.142;7.768;2023-04-15T15:12:11;15.90;38.10
5868;DHT22;2960;49.142;7.768;2023-04-15T15:14:38;15.90;38.30
5868;DHT22;2960;49.142;7.768;2023-04-15T15:17:06;15.90;38.40
5868;DHT22;2960;49.142;7.768;2023-04-15T15:19:33;15.90;38.40
5868;DHT22;2960;49.142;7.768;2023-04-15T15:22:09;15.90;38.40
5868;DHT22;2960;49.142;7.768;2023-04-15T15:24:37;15.80;38.40
5868;DHT22;2960;49.142;7.768;2023-04-15T15:27:05;15.80;38.60
5868;DHT22;2960;49.142;7.768;2023-04-15T15:29:32;15.80;38.60
5868;DHT22;2960;49.142;7.768;2023-04-15T15:31:59;15.80;38.70
5868;DHT22;2960;49.142;7.768;2023-04-15T15:34:26;15.80;38.80
5868;DHT22;2960;49.142;7.768;2023-04-15T15:36:53;15.80;38.80
5868;DHT22;2960;49.142;7.768;2023-04-15T15:39:21;15.80;39.00
5868;DHT22;2960;49.142;7.768;2023-04-15T15:41:50;15.80;39.00
5868;DHT22;2960;49.142;7.768;2023-04-15T15:44:17;15.80;39.10
5868;DHT22;2960;49.142;7.768;2023-04-15T15:46:44;15.70;39.00
5868;DHT22;2960;49.142;7.768;2023-04-15T15:49:11;15.70;39.10
5868;DHT22;2960;49.142;7.768;2023-04-15T15:51:39;15.70;39.20
5868;DHT22;2960;49.142;7.768;2023-04-15T15:54:06;15.70;39.20
5868;DHT22;2960;49.142;7.768;2023-04-15T15:56:33;15.70;39.40
5868;DHT22;2960;49.142;7.768;2023-04-15T15:59:04;15.70;39.50
5868;DHT22;2960;49.142;7.768;2023-04-15T16:01:31;15.70;39.50
5868;DHT22;2960;49.142;7.768;2023-04-15T16:03:58;15.70;39.60
5868;DHT22;2960;49.142;7.768;2023-04-15T16:06:25;15.70;39.70
5868;DHT22;2960;49.142;7.768;2023-04-15T16:08:53;15.70;39.80
5868;DHT22;2960;49.142;7.768;2023-04-15T16:11:20;15.60;39.90
5868;DHT22;2960;49.142;7.768;2023-04-15T16:13:47;15.60;40.10
5868;DHT22;2960;49.142;7.768;2023-04-15T16:16:16;15.60;40.20
5868;DHT22;2960;49.142;7.768;2023-04-15T16:18:43;15.60;40.30
5868;DHT22;2960;49.142;7.768;2023-04-15T16:21:10;15.60;40.50